sensor_id;sensor_type;location;lat;lon;timestamp;P1;durP1;ratioP1;P2;durP2;ratioP2
21705;SDS011;11014;53.076;18.208;2023-04-24T00:01:44;21.02;;;18.23;;
21705;SDS011;11014;53.076;18.208;2023-04-24T00:04:12;21.48;;;18.02;;
21705;SDS011;11014;53.076;18.208;2023-04-24T00:06:45;20.90;;;18.08;;
21705;SDS011;11014;53.076;18.208;2023-04-24T00:09:17;23.08;;;18.40;;
21705;SDS011;11014;53.076;18.208;2023-04-24T00:11:46;22.23;;;19.20;;
21705;SDS011;11014;53.076;18.208;2023-04-24T00:14:15;24.25;;;20.38;;
21705;SDS011;11014;53.076;18.208;2023-04-24T00:16:44;25.05;;;18.58;;
21705;SDS011;11014;53.076;18.208;2023-04-24T00:19:13;26.70;;;20.83;;
21705;SDS011;11014;53.076;18.208;2023-04-24T00:21:42;25.98;;;20.17;;
21705;SDS011;11014;53.076;18.208;2023-04-24T00:24:10;25.30;;;20.60;;
21705;SDS011;11014;53.076;18.208;2023-04-24T00:26:39;23.92;;;20.30;;
21705;SDS011;11014;53.076;18.208;2023-04-24T00:29:07;26.83;;;20.75;;
21705;SDS011;11014;53.076;18.208;2023-04-24T00:31:38;24.10;;;20.23;;
21705;SDS011;11014;53.076;18.208;2023-04-24T00:34:07;23.85;;;20.05;;
21705;SDS011;11014;53.076;18.208;2023-04-24T00:39:30;26.98;;;21.92;;
21705;SDS011;11014;53.076;18.208;2023-04-24T00:41:59;29.10;;;21.20;;
21705;SDS011;11014;53.076;18.208;2023-04-24T00:44:29;26.27;;;20.38;;
21705;SDS011;11014;53.076;18.208;2023-04-24T00:46:58;27.20;;;21.52;;
21705;SDS011;11014;53.076;18.208;2023-04-24T00:49:28;27.17;;;20.85;;
21705;SDS011;11014;53.076;18.208;2023-04-24T00:51:57;29.65;;;21.65;;
21705;SDS011;11014;53.076;18.208;2023-04-24T00:54:27;26.25;;;21.58;;
21705;SDS011;11014;53.076;18.208;2023-04-24T00:56:56;30.20;;;21.52;;
21705;SDS011;11014;53.076;18.208;2023-04-24T00:59:24;28.13;;;22.45;;
21705;SDS011;11014;53.076;18.208;2023-04-24T01:01:53;28.92;;;23.10;;
21705;SDS011;11014;53.076;18.208;2023-04-24T01:04:23;27.85;;;21.92;;
21705;SDS011;11014;53.076;18.208;2023-04-24T01:06:53;31.83;;;23.63;;
21705;SDS011;11014;53.076;18.208;2023-04-24T01:09:24;32.17;;;23.30;;
21705;SDS011;11014;53.076;18.208;2023-04-24T01:11:54;30.40;;;23.77;;
21705;SDS011;11014;53.076;18.208;2023-04-24T01:14:22;35.75;;;24.55;;
21705;SDS011;11014;53.076;18.208;2023-04-24T01:16:52;30.75;;;23.27;;
21705;SDS011;11014;53.076;18.208;2023-04-24T01:19:21;35.90;;;23.73;;
21705;SDS011;11014;53.076;18.208;2023-04-24T01:21:50;32.22;;;24.55;;
21705;SDS011;11014;53.076;18.208;2023-04-24T01:24:21;31.10;;;24.15;;
21705;SDS011;11014;53.076;18.208;2023-04-24T01:26:50;33.00;;;24.23;;
21705;SDS011;11014;53.076;18.208;2023-04-24T01:29:19;31.25;;;24.05;;
21705;SDS011;11014;53.076;18.208;2023-04-24T01:31:48;34.58;;;24.00;;
21705;SDS011;11014;53.076;18.208;2023-04-24T01:34:18;33.97;;;25.08;;
21705;SDS011;11014;53.076;18.208;2023-04-24T01:36:47;33.92;;;24.67;;
21705;SDS011;11014;53.076;18.208;2023-04-24T01:39:16;30.35;;;23.52;;
21705;SDS011;11014;53.076;18.208;2023-04-24T01:41:45;35.72;;;24.88;;
21705;SDS011;11014;53.076;18.208;2023-04-24T01:44:15;33.70;;;24.70;;
21705;SDS011;11014;53.076;18.208;2023-04-24T01:46:44;36.05;;;25.85;;
21705;SDS011;11014;53.076;18.208;2023-04-24T01:49:13;36.05;;;25.58;;
21705;SDS011;11014;53.076;18.208;2023-04-24T01:51:42;34.00;;;24.85;;
21705;SDS011;11014;53.076;18.208;2023-04-24T01:54:10;36.10;;;24.48;;
21705;SDS011;11014;53.076;18.208;2023-04-24T01:56:42;37.38;;;25.60;;
21705;SDS011;11014;53.076;18.208;2023-04-24T01:59:11;34.55;;;25.35;;
21705;SDS011;11014;53.076;18.208;2023-04-24T02:01:41;33.88;;;24.95;;
21705;SDS011;11014;53.076;18.208;2023-04-24T02:04:09;37.03;;;25.00;;
21705;SDS011;11014;53.076;18.208;2023-04-24T02:06:38;34.58;;;24.52;;
21705;SDS011;11014;53.076;18.208;2023-04-24T02:09:07;36.58;;;24.88;;
21705;SDS011;11014;53.076;18.208;2023-04-24T02:11:36;33.58;;;24.60;;
21705;SDS011;11014;53.076;18.208;2023-04-24T02:14:05;35.03;;;25.05;;
21705;SDS011;11014;53.076;18.208;2023-04-24T02:16:34;35.70;;;24.90;;
21705;SDS011;11014;53.076;18.208;2023-04-24T02:19:03;34.72;;;23.65;;
21705;SDS011;11014;53.076;18.208;2023-04-24T02:21:32;33.80;;;23.60;;
21705;SDS011;11014;53.076;18.208;2023-04-24T02:24:01;34.50;;;23.75;;
21705;SDS011;11014;53.076;18.208;2023-04-24T02:26:30;39.17;;;25.70;;
21705;SDS011;11014;53.076;18.208;2023-04-24T02:28:59;33.20;;;22.98;;
21705;SDS011;11014;53.076;18.208;2023-04-24T02:31:30;33.30;;;24.10;;
21705;SDS011;11014;53.076;18.208;2023-04-24T02:33:58;33.22;;;23.60;;
21705;SDS011;11014;53.076;18.208;2023-04-24T02:36:27;34.65;;;23.63;;
21705;SDS011;11014;53.076;18.208;2023-04-24T02:38:55;36.03;;;23.90;;
21705;SDS011;11014;53.076;18.208;2023-04-24T02:41:24;35.63;;;23.73;;
21705;SDS011;11014;53.076;18.208;2023-04-24T02:43:53;32.47;;;23.48;;
21705;SDS011;11014;53.076;18.208;2023-04-24T02:46:22;33.15;;;23.98;;
21705;SDS011;11014;53.076;18.208;2023-04-24T02:48:50;30.50;;;22.67;;
21705;SDS011;11014;53.076;18.208;2023-04-24T02:51:21;30.77;;;21.90;;
21705;SDS011;11014;53.076;18.208;2023-04-24T02:53:49;34.50;;;23.00;;
21705;SDS011;11014;53.076;18.208;2023-04-24T02:56:18;30.00;;;23.33;;
21705;SDS011;11014;53.076;18.208;2023-04-24T02:58:46;31.65;;;23.77;;
21705;SDS011;11014;53.076;18.208;2023-04-24T03:01:18;33.67;;;24.05;;
21705;SDS011;11014;53.076;18.208;2023-04-24T03:03:46;33.58;;;23.15;;
21705;SDS011;11014;53.076;18.208;2023-04-24T03:06:16;34.08;;;23.95;;
21705;SDS011;11014;53.076;18.208;2023-04-24T03:08:44;33.22;;;23.38;;
21705;SDS011;11014;53.076;18.208;2023-04-24T03:11:14;32.38;;;24.00;;
21705;SDS011;11014;53.076;18.208;2023-04-24T03:13:43;34.40;;;23.63;;
21705;SDS011;11014;53.076;18.208;2023-04-24T03:16:12;34.53;;;23.15;;
21705;SDS011;11014;53.076;18.208;2023-04-24T03:18:40;34.78;;;23.27;;
21705;SDS011;11014;53.076;18.208;2023-04-24T03:21:10;33.85;;;23.67;;
21705;SDS011;11014;53.076;18.208;2023-04-24T03:23:42;34.25;;;24.13;;
21705;SDS011;11014;53.076;18.208;2023-04-24T03:26:11;35.40;;;24.23;;
21705;SDS011;11014;53.076;18.208;2023-04-24T03:28:50;32.03;;;23.30;;
21705;SDS011;11014;53.076;18.208;2023-04-24T03:31:19;30.95;;;22.55;;
21705;SDS011;11014;53.076;18.208;2023-04-24T03:33:49;33.60;;;23.08;;
21705;SDS011;11014;53.076;18.208;2023-04-24T03:36:18;32.42;;;23.60;;
21705;SDS011;11014;53.076;18.208;2023-04-24T03:38:47;30.90;;;22.60;;
21705;SDS011;11014;53.076;18.208;2023-04-24T03:41:29;31.92;;;23.90;;
21705;SDS011;11014;53.076;18.208;2023-04-24T03:44:25;32.80;;;23.38;;
21705;SDS011;11014;53.076;18.208;2023-04-24T03:46:54;31.25;;;23.77;;
21705;SDS011;11014;53.076;18.208;2023-04-24T03:49:24;31.95;;;22.88;;
21705;SDS011;11014;53.076;18.208;2023-04-24T03:51:56;32.38;;;24.05;;
21705;SDS011;11014;53.076;18.208;2023-04-24T03:54:27;33.17;;;24.08;;
21705;SDS011;11014;53.076;18.208;2023-04-24T03:56:58;31.85;;;23.65;;
21705;SDS011;11014;53.076;18.208;2023-04-24T03:59:28;32.33;;;23.73;;
21705;SDS011;11014;53.076;18.208;2023-04-24T04:02:14;32.88;;;23.77;;
21705;SDS011;11014;53.076;18.208;2023-04-24T04:04:43;33.28;;;23.83;;
21705;SDS011;11014;53.076;18.208;2023-04-24T04:07:12;33.40;;;23.83;;
21705;SDS011;11014;53.076;18.208;2023-04-24T04:12:41;35.10;;;23.35;;
21705;SDS011;11014;53.076;18.208;2023-04-24T04:15:10;37.53;;;26.15;;
21705;SDS011;11014;53.076;18.208;2023-04-24T04:17:39;41.35;;;26.25;;
21705;SDS011;11014;53.076;18.208;2023-04-24T04:20:08;38.97;;;25.75;;
21705;SDS011;11014;53.076;18.208;2023-04-24T04:22:41;39.97;;;26.85;;
21705;SDS011;11014;53.076;18.208;2023-04-24T04:25:16;39.83;;;25.85;;
21705;SDS011;11014;53.076;18.208;2023-04-24T04:31:40;38.38;;;26.27;;
21705;SDS011;11014;53.076;18.208;2023-04-24T04:34:18;41.45;;;28.00;;
21705;SDS011;11014;53.076;18.208;2023-04-24T04:36:47;37.83;;;26.45;;
21705;SDS011;11014;53.076;18.208;2023-04-24T04:39:39;35.22;;;26.65;;
21705;SDS011;11014;53.076;18.208;2023-04-24T04:42:13;36.90;;;27.63;;
21705;SDS011;11014;53.076;18.208;2023-04-24T04:44:43;38.10;;;26.58;;
21705;SDS011;11014;53.076;18.208;2023-04-24T04:47:25;36.15;;;26.23;;
21705;SDS011;11014;53.076;18.208;2023-04-24T04:49:58;31.55;;;23.77;;
21705;SDS011;11014;53.076;18.208;2023-04-24T04:52:29;38.25;;;24.17;;
21705;SDS011;11014;53.076;18.208;2023-04-24T04:55:17;31.95;;;24.92;;
21705;SDS011;11014;53.076;18.208;2023-04-24T04:58:08;36.08;;;24.20;;
21705;SDS011;11014;53.076;18.208;2023-04-24T05:00:37;33.50;;;23.45;;
21705;SDS011;11014;53.076;18.208;2023-04-24T05:03:16;32.58;;;24.13;;
21705;SDS011;11014;53.076;18.208;2023-04-24T05:05:54;35.60;;;27.42;;
21705;SDS011;11014;53.076;18.208;2023-04-24T05:08:24;36.17;;;26.33;;
21705;SDS011;11014;53.076;18.208;2023-04-24T05:10:55;29.80;;;22.60;;
21705;SDS011;11014;53.076;18.208;2023-04-24T05:13:27;30.60;;;22.35;;
21705;SDS011;11014;53.076;18.208;2023-04-24T05:16:18;26.15;;;21.08;;
21705;SDS011;11014;53.076;18.208;2023-04-24T05:18:48;27.35;;;23.02;;
21705;SDS011;11014;53.076;18.208;2023-04-24T05:21:21;30.92;;;23.55;;
21705;SDS011;11014;53.076;18.208;2023-04-24T05:23:52;28.83;;;22.20;;
21705;SDS011;11014;53.076;18.208;2023-04-24T05:26:37;25.17;;;20.30;;
21705;SDS011;11014;53.076;18.208;2023-04-24T05:29:08;27.17;;;20.92;;
21705;SDS011;11014;53.076;18.208;2023-04-24T05:31:36;25.80;;;20.83;;
21705;SDS011;11014;53.076;18.208;2023-04-24T05:34:05;27.33;;;20.13;;
21705;SDS011;11014;53.076;18.208;2023-04-24T05:36:35;26.85;;;19.95;;
21705;SDS011;11014;53.076;18.208;2023-04-24T05:39:04;25.10;;;20.60;;
21705;SDS011;11014;53.076;18.208;2023-04-24T05:41:35;24.87;;;20.90;;
21705;SDS011;11014;53.076;18.208;2023-04-24T05:44:03;28.98;;;21.45;;
21705;SDS011;11014;53.076;18.208;2023-04-24T05:46:32;26.80;;;21.30;;
21705;SDS011;11014;53.076;18.208;2023-04-24T05:49:01;25.85;;;20.33;;
21705;SDS011;11014;53.076;18.208;2023-04-24T05:51:32;24.00;;;19.20;;
21705;SDS011;11014;53.076;18.208;2023-04-24T05:54:01;21.48;;;17.95;;
21705;SDS011;11014;53.076;18.208;2023-04-24T05:56:31;22.38;;;17.95;;
21705;SDS011;11014;53.076;18.208;2023-04-24T05:59:02;21.02;;;17.38;;
21705;SDS011;11014;53.076;18.208;2023-04-24T06:01:32;23.08;;;17.55;;
21705;SDS011;11014;53.076;18.208;2023-04-24T06:04:09;21.77;;;17.33;;
21705;SDS011;11014;53.076;18.208;2023-04-24T06:06:38;19.85;;;15.77;;
21705;SDS011;11014;53.076;18.208;2023-04-24T06:09:08;19.00;;;15.57;;
21705;SDS011;11014;53.076;18.208;2023-04-24T06:11:36;17.67;;;14.30;;
21705;SDS011;11014;53.076;18.208;2023-04-24T06:14:06;19.52;;;14.63;;
21705;SDS011;11014;53.076;18.208;2023-04-24T06:16:57;17.40;;;14.10;;
21705;SDS011;11014;53.076;18.208;2023-04-24T06:19:37;17.27;;;14.80;;
21705;SDS011;11014;53.076;18.208;2023-04-24T06:22:05;16.67;;;13.85;;
21705;SDS011;11014;53.076;18.208;2023-04-24T06:24:36;17.80;;;13.93;;
21705;SDS011;11014;53.076;18.208;2023-04-24T06:27:05;20.40;;;16.88;;
21705;SDS011;11014;53.076;18.208;2023-04-24T06:29:35;24.58;;;17.95;;
21705;SDS011;11014;53.076;18.208;2023-04-24T06:32:04;22.13;;;17.08;;
21705;SDS011;11014;53.076;18.208;2023-04-24T06:34:33;18.80;;;15.13;;
21705;SDS011;11014;53.076;18.208;2023-04-24T06:37:02;18.75;;;14.50;;
21705;SDS011;11014;53.076;18.208;2023-04-24T06:39:30;19.50;;;15.27;;
21705;SDS011;11014;53.076;18.208;2023-04-24T06:41:59;20.10;;;14.55;;
21705;SDS011;11014;53.076;18.208;2023-04-24T06:44:28;19.45;;;14.75;;
21705;SDS011;11014;53.076;18.208;2023-04-24T06:46:57;20.70;;;14.63;;
21705;SDS011;11014;53.076;18.208;2023-04-24T06:49:28;18.88;;;14.73;;
21705;SDS011;11014;53.076;18.208;2023-04-24T06:51:56;18.00;;;14.75;;
21705;SDS011;11014;53.076;18.208;2023-04-24T06:54:25;17.75;;;14.70;;
21705;SDS011;11014;53.076;18.208;2023-04-24T06:56:53;18.85;;;14.35;;
21705;SDS011;11014;53.076;18.208;2023-04-24T06:59:23;17.83;;;14.40;;
21705;SDS011;11014;53.076;18.208;2023-04-24T07:01:52;18.05;;;14.75;;
21705;SDS011;11014;53.076;18.208;2023-04-24T07:04:22;16.52;;;13.80;;
21705;SDS011;11014;53.076;18.208;2023-04-24T07:06:53;18.25;;;15.90;;
21705;SDS011;11014;53.076;18.208;2023-04-24T07:09:26;18.98;;;15.63;;
21705;SDS011;11014;53.076;18.208;2023-04-24T07:11:57;20.60;;;15.57;;
21705;SDS011;11014;53.076;18.208;2023-04-24T07:14:26;21.73;;;16.38;;
21705;SDS011;11014;53.076;18.208;2023-04-24T07:16:54;21.00;;;15.45;;
21705;SDS011;11014;53.076;18.208;2023-04-24T07:19:25;31.77;;;16.20;;
21705;SDS011;11014;53.076;18.208;2023-04-24T07:21:54;18.30;;;14.55;;
21705;SDS011;11014;53.076;18.208;2023-04-24T07:24:23;19.27;;;15.32;;
21705;SDS011;11014;53.076;18.208;2023-04-24T07:26:53;20.23;;;14.18;;
21705;SDS011;11014;53.076;18.208;2023-04-24T07:29:22;17.17;;;13.77;;
21705;SDS011;11014;53.076;18.208;2023-04-24T07:31:50;14.68;;;12.02;;
21705;SDS011;11014;53.076;18.208;2023-04-24T07:34:19;13.73;;;11.93;;
21705;SDS011;11014;53.076;18.208;2023-04-24T07:36:48;13.98;;;11.73;;
21705;SDS011;11014;53.076;18.208;2023-04-24T07:39:17;14.88;;;13.02;;
21705;SDS011;11014;53.076;18.208;2023-04-24T07:41:45;16.50;;;12.82;;
21705;SDS011;11014;53.076;18.208;2023-04-24T07:44:14;17.77;;;13.07;;
21705;SDS011;11014;53.076;18.208;2023-04-24T07:46:43;16.85;;;12.95;;
21705;SDS011;11014;53.076;18.208;2023-04-24T07:49:11;15.32;;;13.02;;
21705;SDS011;11014;53.076;18.208;2023-04-24T07:51:42;16.77;;;12.30;;
21705;SDS011;11014;53.076;18.208;2023-04-24T07:54:10;15.80;;;11.80;;
21705;SDS011;11014;53.076;18.208;2023-04-24T07:56:39;17.92;;;12.57;;
21705;SDS011;11014;53.076;18.208;2023-04-24T07:59:10;12.68;;;11.30;;
21705;SDS011;11014;53.076;18.208;2023-04-24T08:01:39;13.50;;;10.48;;
21705;SDS011;11014;53.076;18.208;2023-04-24T08:04:08;11.45;;;9.90;;
21705;SDS011;11014;53.076;18.208;2023-04-24T08:06:36;11.57;;;9.60;;
21705;SDS011;11014;53.076;18.208;2023-04-24T08:09:05;13.57;;;10.02;;
21705;SDS011;11014;53.076;18.208;2023-04-24T08:11:34;10.98;;;8.80;;
21705;SDS011;11014;53.076;18.208;2023-04-24T08:14:02;11.43;;;8.20;;
21705;SDS011;11014;53.076;18.208;2023-04-24T08:16:32;10.38;;;8.38;;
21705;SDS011;11014;53.076;18.208;2023-04-24T08:19:01;12.25;;;8.10;;
21705;SDS011;11014;53.076;18.208;2023-04-24T08:21:30;9.27;;;7.68;;
21705;SDS011;11014;53.076;18.208;2023-04-24T08:23:58;9.00;;;8.10;;
21705;SDS011;11014;53.076;18.208;2023-04-24T08:26:27;9.63;;;8.60;;
21705;SDS011;11014;53.076;18.208;2023-04-24T08:28:55;10.93;;;8.57;;
21705;SDS011;11014;53.076;18.208;2023-04-24T08:31:24;10.98;;;8.77;;
21705;SDS011;11014;53.076;18.208;2023-04-24T08:33:54;9.18;;;8.27;;
21705;SDS011;11014;53.076;18.208;2023-04-24T08:36:22;10.45;;;8.45;;
21705;SDS011;11014;53.076;18.208;2023-04-24T08:39:03;10.70;;;8.95;;
21705;SDS011;11014;53.076;18.208;2023-04-24T08:41:32;12.68;;;8.75;;
21705;SDS011;11014;53.076;18.208;2023-04-24T08:44:03;10.30;;;8.80;;
21705;SDS011;11014;53.076;18.208;2023-04-24T08:46:31;9.82;;;8.38;;
21705;SDS011;11014;53.076;18.208;2023-04-24T08:49:01;10.10;;;8.95;;
21705;SDS011;11014;53.076;18.208;2023-04-24T08:51:30;10.75;;;8.85;;
21705;SDS011;11014;53.076;18.208;2023-04-24T08:53:59;9.60;;;8.60;;
21705;SDS011;11014;53.076;18.208;2023-04-24T08:56:29;10.23;;;9.20;;
21705;SDS011;11014;53.076;18.208;2023-04-24T08:59:00;9.07;;;8.18;;
21705;SDS011;11014;53.076;18.208;2023-04-24T09:01:30;11.40;;;8.25;;
21705;SDS011;11014;53.076;18.208;2023-04-24T09:04:02;10.37;;;8.80;;
21705;SDS011;11014;53.076;18.208;2023-04-24T09:06:32;9.20;;;8.30;;
21705;SDS011;11014;53.076;18.208;2023-04-24T09:09:04;13.98;;;10.35;;
21705;SDS011;11014;53.076;18.208;2023-04-24T09:11:33;10.93;;;9.13;;
21705;SDS011;11014;53.076;18.208;2023-04-24T09:14:02;12.75;;;9.63;;
21705;SDS011;11014;53.076;18.208;2023-04-24T09:16:31;11.48;;;9.30;;
21705;SDS011;11014;53.076;18.208;2023-04-24T09:19:04;11.75;;;9.93;;
21705;SDS011;11014;53.076;18.208;2023-04-24T09:21:33;11.73;;;10.23;;
21705;SDS011;11014;53.076;18.208;2023-04-24T09:24:04;12.23;;;9.00;;
21705;SDS011;11014;53.076;18.208;2023-04-24T09:26:35;10.88;;;8.93;;
21705;SDS011;11014;53.076;18.208;2023-04-24T09:29:05;11.40;;;9.77;;
21705;SDS011;11014;53.076;18.208;2023-04-24T09:31:33;10.70;;;9.50;;
21705;SDS011;11014;53.076;18.208;2023-04-24T09:34:05;13.18;;;9.98;;
21705;SDS011;11014;53.076;18.208;2023-04-24T09:36:35;10.93;;;9.77;;
21705;SDS011;11014;53.076;18.208;2023-04-24T09:39:12;10.32;;;9.07;;
21705;SDS011;11014;53.076;18.208;2023-04-24T09:41:46;11.38;;;9.10;;
21705;SDS011;11014;53.076;18.208;2023-04-24T09:44:18;9.93;;;8.65;;
21705;SDS011;11014;53.076;18.208;2023-04-24T09:46:51;10.73;;;8.43;;
21705;SDS011;11014;53.076;18.208;2023-04-24T09:49:28;11.63;;;8.18;;
21705;SDS011;11014;53.076;18.208;2023-04-24T09:52:04;8.52;;;7.40;;
21705;SDS011;11014;53.076;18.208;2023-04-24T09:54:34;9.60;;;7.35;;
21705;SDS011;11014;53.076;18.208;2023-04-24T09:57:04;7.18;;;6.47;;
21705;SDS011;11014;53.076;18.208;2023-04-24T09:59:35;7.55;;;6.78;;
21705;SDS011;11014;53.076;18.208;2023-04-24T10:02:18;8.18;;;7.38;;
21705;SDS011;11014;53.076;18.208;2023-04-24T10:04:55;8.70;;;7.57;;
21705;SDS011;11014;53.076;18.208;2023-04-24T10:07:28;8.63;;;6.90;;
21705;SDS011;11014;53.076;18.208;2023-04-24T10:09:57;9.90;;;7.32;;
21705;SDS011;11014;53.076;18.208;2023-04-24T10:12:26;9.05;;;7.97;;
21705;SDS011;11014;53.076;18.208;2023-04-24T10:14:55;9.35;;;7.03;;
21705;SDS011;11014;53.076;18.208;2023-04-24T10:17:25;9.02;;;7.60;;
21705;SDS011;11014;53.076;18.208;2023-04-24T10:19:55;11.23;;;7.65;;
21705;SDS011;11014;53.076;18.208;2023-04-24T10:22:25;12.10;;;7.18;;
21705;SDS011;11014;53.076;18.208;2023-04-24T10:24:55;8.07;;;7.15;;
21705;SDS011;11014;53.076;18.208;2023-04-24T10:27:25;17.88;;;8.10;;
21705;SDS011;11014;53.076;18.208;2023-04-24T10:29:55;12.27;;;7.60;;
21705;SDS011;11014;53.076;18.208;2023-04-24T10:32:24;12.20;;;7.45;;
21705;SDS011;11014;53.076;18.208;2023-04-24T10:34:54;12.15;;;7.95;;
21705;SDS011;11014;53.076;18.208;2023-04-24T10:37:24;12.48;;;7.63;;
21705;SDS011;11014;53.076;18.208;2023-04-24T10:39:55;9.82;;;8.18;;
21705;SDS011;11014;53.076;18.208;2023-04-24T10:42:24;14.18;;;9.43;;
21705;SDS011;11014;53.076;18.208;2023-04-24T10:47:26;11.30;;;9.52;;
21705;SDS011;11014;53.076;18.208;2023-04-24T10:49:55;12.55;;;10.05;;
21705;SDS011;11014;53.076;18.208;2023-04-24T10:52:43;12.70;;;10.68;;
21705;SDS011;11014;53.076;18.208;2023-04-24T10:55:13;11.88;;;10.68;;
21705;SDS011;11014;53.076;18.208;2023-04-24T10:58:02;11.52;;;10.35;;
21705;SDS011;11014;53.076;18.208;2023-04-24T11:00:32;12.85;;;10.32;;
21705;SDS011;11014;53.076;18.208;2023-04-24T11:03:00;11.68;;;9.68;;
21705;SDS011;11014;53.076;18.208;2023-04-24T11:06:16;12.48;;;9.70;;
21705;SDS011;11014;53.076;18.208;2023-04-24T11:08:42;13.85;;;9.82;;
21705;SDS011;11014;53.076;18.208;2023-04-24T11:11:13;12.70;;;9.80;;
21705;SDS011;11014;53.076;18.208;2023-04-24T11:14:04;11.63;;;10.18;;
21705;SDS011;11014;53.076;18.208;2023-04-24T11:19:07;15.73;;;10.05;;
21705;SDS011;11014;53.076;18.208;2023-04-24T11:21:40;14.48;;;10.00;;
21705;SDS011;11014;53.076;18.208;2023-04-24T11:27:19;12.90;;;9.73;;
21705;SDS011;11014;53.076;18.208;2023-04-24T11:35:14;12.20;;;10.88;;
21705;SDS011;11014;53.076;18.208;2023-04-24T11:37:59;11.73;;;10.50;;
21705;SDS011;11014;53.076;18.208;2023-04-24T11:40:51;14.88;;;10.32;;
21705;SDS011;11014;53.076;18.208;2023-04-24T11:43:24;11.60;;;10.35;;
21705;SDS011;11014;53.076;18.208;2023-04-24T11:45:53;13.10;;;11.65;;
21705;SDS011;11014;53.076;18.208;2023-04-24T11:48:22;14.73;;;10.68;;
21705;SDS011;11014;53.076;18.208;2023-04-24T11:50:51;13.57;;;11.27;;
21705;SDS011;11014;53.076;18.208;2023-04-24T11:53:20;12.27;;;10.65;;
21705;SDS011;11014;53.076;18.208;2023-04-24T11:55:49;12.55;;;11.25;;
21705;SDS011;11014;53.076;18.208;2023-04-24T11:58:20;17.60;;;12.13;;
21705;SDS011;11014;53.076;18.208;2023-04-24T12:00:55;13.57;;;12.23;;
21705;SDS011;11014;53.076;18.208;2023-04-24T12:03:26;15.15;;;11.60;;
21705;SDS011;11014;53.076;18.208;2023-04-24T12:06:05;15.80;;;12.07;;
21705;SDS011;11014;53.076;18.208;2023-04-24T12:08:36;13.75;;;12.32;;
21705;SDS011;11014;53.076;18.208;2023-04-24T12:11:06;16.63;;;11.75;;
21705;SDS011;11014;53.076;18.208;2023-04-24T12:13:35;16.08;;;11.30;;
21705;SDS011;11014;53.076;18.208;2023-04-24T12:16:04;20.00;;;11.75;;
21705;SDS011;11014;53.076;18.208;2023-04-24T12:18:34;17.10;;;12.38;;
21705;SDS011;11014;53.076;18.208;2023-04-24T12:23:54;12.85;;;11.15;;
21705;SDS011;11014;53.076;18.208;2023-04-24T12:26:22;11.75;;;10.57;;
21705;SDS011;11014;53.076;18.208;2023-04-24T12:28:51;14.85;;;10.75;;
21705;SDS011;11014;53.076;18.208;2023-04-24T12:31:20;11.73;;;10.10;;
21705;SDS011;11014;53.076;18.208;2023-04-24T12:33:49;11.57;;;9.18;;
21705;SDS011;11014;53.076;18.208;2023-04-24T12:36:18;10.18;;;7.65;;
21705;SDS011;11014;53.076;18.208;2023-04-24T12:38:52;10.30;;;6.95;;
21705;SDS011;11014;53.076;18.208;2023-04-24T12:43:52;8.52;;;5.95;;
21705;SDS011;11014;53.076;18.208;2023-04-24T12:46:22;10.20;;;5.97;;
21705;SDS011;11014;53.076;18.208;2023-04-24T12:48:51;6.97;;;5.43;;
21705;SDS011;11014;53.076;18.208;2023-04-24T12:54:14;16.00;;;5.85;;
21705;SDS011;11014;53.076;18.208;2023-04-24T12:56:43;7.32;;;5.63;;
21705;SDS011;11014;53.076;18.208;2023-04-24T12:59:12;9.57;;;5.50;;
21705;SDS011;11014;53.076;18.208;2023-04-24T13:01:40;8.75;;;5.75;;
21705;SDS011;11014;53.076;18.208;2023-04-24T13:04:09;7.50;;;6.43;;
21705;SDS011;11014;53.076;18.208;2023-04-24T13:06:38;7.45;;;5.50;;
21705;SDS011;11014;53.076;18.208;2023-04-24T13:09:06;6.47;;;5.53;;
21705;SDS011;11014;53.076;18.208;2023-04-24T13:11:35;7.55;;;6.10;;
21705;SDS011;11014;53.076;18.208;2023-04-24T13:14:04;8.65;;;5.80;;
21705;SDS011;11014;53.076;18.208;2023-04-24T13:16:33;6.43;;;5.20;;
21705;SDS011;11014;53.076;18.208;2023-04-24T13:19:04;5.53;;;4.82;;
21705;SDS011;11014;53.076;18.208;2023-04-24T13:21:35;5.30;;;4.80;;
21705;SDS011;11014;53.076;18.208;2023-04-24T13:24:15;11.70;;;5.25;;
21705;SDS011;11014;53.076;18.208;2023-04-24T13:26:43;6.20;;;5.43;;
21705;SDS011;11014;53.076;18.208;2023-04-24T13:29:12;6.72;;;5.75;;
21705;SDS011;11014;53.076;18.208;2023-04-24T13:31:40;10.73;;;6.30;;
21705;SDS011;11014;53.076;18.208;2023-04-24T13:34:09;7.45;;;6.07;;
21705;SDS011;11014;53.076;18.208;2023-04-24T13:36:38;8.75;;;6.43;;
21705;SDS011;11014;53.076;18.208;2023-04-24T13:39:07;7.78;;;6.50;;
21705;SDS011;11014;53.076;18.208;2023-04-24T13:41:35;11.02;;;6.43;;
21705;SDS011;11014;53.076;18.208;2023-04-24T13:44:05;8.40;;;6.10;;
21705;SDS011;11014;53.076;18.208;2023-04-24T13:46:34;10.05;;;6.82;;
21705;SDS011;11014;53.076;18.208;2023-04-24T13:49:03;8.75;;;7.03;;
21705;SDS011;11014;53.076;18.208;2023-04-24T13:51:35;8.80;;;7.67;;
21705;SDS011;11014;53.076;18.208;2023-04-24T13:54:03;10.05;;;7.88;;
21705;SDS011;11014;53.076;18.208;2023-04-24T13:56:32;9.90;;;8.32;;
21705;SDS011;11014;53.076;18.208;2023-04-24T13:59:01;11.52;;;8.63;;
21705;SDS011;11014;53.076;18.208;2023-04-24T14:01:29;10.20;;;8.73;;
21705;SDS011;11014;53.076;18.208;2023-04-24T14:03:59;11.38;;;8.95;;
21705;SDS011;11014;53.076;18.208;2023-04-24T14:09:22;11.73;;;10.27;;
21705;SDS011;11014;53.076;18.208;2023-04-24T14:11:52;9.45;;;8.45;;
21705;SDS011;11014;53.076;18.208;2023-04-24T14:14:21;9.75;;;8.10;;
21705;SDS011;11014;53.076;18.208;2023-04-24T14:16:50;9.38;;;7.43;;
21705;SDS011;11014;53.076;18.208;2023-04-24T14:19:22;8.57;;;7.07;;
21705;SDS011;11014;53.076;18.208;2023-04-24T14:21:50;23.05;;;7.10;;
21705;SDS011;11014;53.076;18.208;2023-04-24T14:24:20;7.75;;;6.80;;
21705;SDS011;11014;53.076;18.208;2023-04-24T14:26:48;9.63;;;6.30;;
21705;SDS011;11014;53.076;18.208;2023-04-24T14:29:16;8.18;;;6.18;;
21705;SDS011;11014;53.076;18.208;2023-04-24T14:31:45;7.60;;;6.00;;
21705;SDS011;11014;53.076;18.208;2023-04-24T14:34:15;13.95;;;6.18;;
21705;SDS011;11014;53.076;18.208;2023-04-24T14:36:43;28.75;;;7.07;;
21705;SDS011;11014;53.076;18.208;2023-04-24T14:39:12;7.88;;;6.32;;
21705;SDS011;11014;53.076;18.208;2023-04-24T14:41:40;6.28;;;5.35;;
21705;SDS011;11014;53.076;18.208;2023-04-24T14:44:09;7.80;;;5.15;;
21705;SDS011;11014;53.076;18.208;2023-04-24T14:46:38;4.80;;;4.40;;
21705;SDS011;11014;53.076;18.208;2023-04-24T14:49:08;14.30;;;5.43;;
21705;SDS011;11014;53.076;18.208;2023-04-24T14:51:37;5.78;;;5.13;;
21705;SDS011;11014;53.076;18.208;2023-04-24T14:54:06;6.05;;;5.25;;
21705;SDS011;11014;53.076;18.208;2023-04-24T14:56:35;21.55;;;6.35;;
21705;SDS011;11014;53.076;18.208;2023-04-24T14:59:04;8.55;;;5.60;;
21705;SDS011;11014;53.076;18.208;2023-04-24T15:04:44;10.77;;;6.72;;
21705;SDS011;11014;53.076;18.208;2023-04-24T15:10:10;5.95;;;5.38;;
21705;SDS011;11014;53.076;18.208;2023-04-24T15:12:40;6.28;;;5.53;;
21705;SDS011;11014;53.076;18.208;2023-04-24T15:15:08;6.13;;;5.53;;
21705;SDS011;11014;53.076;18.208;2023-04-24T15:17:37;6.90;;;5.90;;